sensor_id;sensor_type;location;lat;lon;timestamp;temperature;humidity
51863;DHT22;37900;52.996;6.278;2023-03-23T00:01:08;17.00;90.60
51863;DHT22;37900;52.996;6.278;2023-03-23T00:03:39;17.00;90.50
51863;DHT22;37900;52.996;6.278;2023-03-23T00:06:05;17.00;90.50
51863;DHT22;37900;52.996;6.278;2023-03-23T00:08:37;17.00;90.50
51863;DHT22;37900;52.996;6.278;2023-03-23T00:11:06;17.00;90.50
51863;DHT22;37900;52.996;6.278;2023-03-23T00:13:33;16.90;90.40
51863;DHT22;37900;52.996;6.278;2023-03-23T00:15:59;17.00;90.40
51863;DHT22;37900;52.996;6.278;2023-03-23T00:18:25;17.00;90.40
51863;DHT22;37900;52.996;6.278;2023-03-23T00:20:55;16.90;90.40
51863;DHT22;37900;52.996;6.278;2023-03-23T00:23:24;16.90;90.40
51863;DHT22;37900;52.996;6.278;2023-03-23T00:25:55;16.90;90.40
51863;DHT22;37900;52.996;6.278;2023-03-23T00:28:23;16.90;90.60
51863;DHT22;37900;52.996;6.278;2023-03-23T00:31:05;16.90;90.30
51863;DHT22;37900;52.996;6.278;2023-03-23T00:33:34;16.90;90.30
51863;DHT22;37900;52.996;6.278;2023-03-23T00:36:13;17.00;90.30
51863;DHT22;37900;52.996;6.278;2023-03-23T00:38:40;17.00;90.30
51863;DHT22;37900;52.996;6.278;2023-03-23T00:41:07;16.90;90.20
51863;DHT22;37900;52.996;6.278;2023-03-23T00:43:33;16.90;90.20
51863;DHT22;37900;52.996;6.278;2023-03-23T00:46:03;16.90;90.20
51863;DHT22;37900;52.996;6.278;2023-03-23T00:48:34;17.00;90.20
51863;DHT22;37900;52.996;6.278;2023-03-23T00:51:02;16.90;90.20
51863;DHT22;37900;52.996;6.278;2023-03-23T00:53:34;16.90;90.20
51863;DHT22;37900;52.996;6.278;2023-03-23T00:56:00;16.90;90.20
51863;DHT22;37900;52.996;6.278;2023-03-23T00:58:26;16.90;90.10
51863;DHT22;37900;52.996;6.278;2023-03-23T01:00:51;16.90;90.10
51863;DHT22;37900;52.996;6.278;2023-03-23T01:03:17;16.90;90.10
51863;DHT22;37900;52.996;6.278;2023-03-23T01:05:44;16.90;90.10
51863;DHT22;37900;52.996;6.278;2023-03-23T01:08:13;16.90;90.10
51863;DHT22;37900;52.996;6.278;2023-03-23T01:10:39;16.90;90.10
51863;DHT22;37900;52.996;6.278;2023-03-23T01:13:06;16.90;90.00
51863;DHT22;37900;52.996;6.278;2023-03-23T01:15:32;16.90;90.00
51863;DHT22;37900;52.996;6.278;2023-03-23T01:17:58;16.90;90.00
51863;DHT22;37900;52.996;6.278;2023-03-23T01:20:25;16.90;90.00
51863;DHT22;37900;52.996;6.278;2023-03-23T01:22:52;16.90;90.00
51863;DHT22;37900;52.996;6.278;2023-03-23T01:25:19;16.90;90.00
51863;DHT22;37900;52.996;6.278;2023-03-23T01:27:44;16.90;90.00
51863;DHT22;37900;52.996;6.278;2023-03-23T01:30:11;16.90;89.90
51863;DHT22;37900;52.996;6.278;2023-03-23T01:32:38;16.90;89.90
51863;DHT22;37900;52.996;6.278;2023-03-23T01:35:04;16.90;89.80
51863;DHT22;37900;52.996;6.278;2023-03-23T01:37:30;16.90;89.80
51863;DHT22;37900;52.996;6.278;2023-03-23T01:39:56;16.90;89.80
51863;DHT22;37900;52.996;6.278;2023-03-23T01:42:30;16.90;89.80
51863;DHT22;37900;52.996;6.278;2023-03-23T01:45:29;16.80;89.60
51863;DHT22;37900;52.996;6.278;2023-03-23T01:50:25;16.80;89.60
51863;DHT22;37900;52.996;6.278;2023-03-23T01:52:53;16.90;89.60
51863;DHT22;37900;52.996;6.278;2023-03-23T01:55:21;16.90;89.60
51863;DHT22;37900;52.996;6.278;2023-03-23T01:57:47;16.80;89.50
51863;DHT22;37900;52.996;6.278;2023-03-23T02:00:14;16.80;89.50
51863;DHT22;37900;52.996;6.278;2023-03-23T02:02:44;16.80;89.40
51863;DHT22;37900;52.996;6.278;2023-03-23T02:05:15;16.90;89.40
51863;DHT22;37900;52.996;6.278;2023-03-23T02:07:44;16.80;89.40
51863;DHT22;37900;52.996;6.278;2023-03-23T02:10:10;16.80;89.40
51863;DHT22;37900;52.996;6.278;2023-03-23T02:12:36;16.80;89.40
51863;DHT22;37900;52.996;6.278;2023-03-23T02:15:02;16.80;89.30
51863;DHT22;37900;52.996;6.278;2023-03-23T02:17:45;16.80;89.30
51863;DHT22;37900;52.996;6.278;2023-03-23T02:29:11;16.80;89.10
51863;DHT22;37900;52.996;6.278;2023-03-23T02:37:51;16.80;89.00
51863;DHT22;37900;52.996;6.278;2023-03-23T02:40:20;16.80;89.00
51863;DHT22;37900;52.996;6.278;2023-03-23T02:42:52;16.80;89.00
51863;DHT22;37900;52.996;6.278;2023-03-23T02:45:21;16.80;89.00
51863;DHT22;37900;52.996;6.278;2023-03-23T02:47:50;16.80;89.00
51863;DHT22;37900;52.996;6.278;2023-03-23T02:50:17;16.80;89.00
51863;DHT22;37900;52.996;6.278;2023-03-23T02:52:46;16.80;89.00
51863;DHT22;37900;52.996;6.278;2023-03-23T02:55:14;16.80;89.00
51863;DHT22;37900;52.996;6.278;2023-03-23T02:57:41;16.80;89.00
51863;DHT22;37900;52.996;6.278;2023-03-23T03:00:13;16.80;88.90
51863;DHT22;37900;52.996;6.278;2023-03-23T03:02:45;16.80;89.00
51863;DHT22;37900;52.996;6.278;2023-03-23T03:11:09;16.70;88.80
51863;DHT22;37900;52.996;6.278;2023-03-23T03:14:07;16.80;88.80
51863;DHT22;37900;52.996;6.278;2023-03-23T03:16:44;16.70;88.70
51863;DHT22;37900;52.996;6.278;2023-03-23T03:19:29;16.70;88.80
51863;DHT22;37900;52.996;6.278;2023-03-23T03:21:58;16.70;88.70
51863;DHT22;37900;52.996;6.278;2023-03-23T03:24:24;16.70;88.70
51863;DHT22;37900;52.996;6.278;2023-03-23T03:26:53;16.70;88.60
51863;DHT22;37900;52.996;6.278;2023-03-23T03:29:28;16.70;88.70
51863;DHT22;37900;52.996;6.278;2023-03-23T03:31:56;16.80;88.70
51863;DHT22;37900;52.996;6.278;2023-03-23T03:34:24;16.80;88.70
51863;DHT22;37900;52.996;6.278;2023-03-23T03:36:52;16.70;88.60
51863;DHT22;37900;52.996;6.278;2023-03-23T03:39:19;16.70;88.60
51863;DHT22;37900;52.996;6.278;2023-03-23T03:41:48;16.70;88.60
51863;DHT22;37900;52.996;6.278;2023-03-23T03:44:14;16.70;88.60
51863;DHT22;37900;52.996;6.278;2023-03-23T03:46:40;16.70;88.50
51863;DHT22;37900;52.996;6.278;2023-03-23T03:49:08;16.80;88.60
51863;DHT22;37900;52.996;6.278;2023-03-23T03:51:34;16.70;88.60
51863;DHT22;37900;52.996;6.278;2023-03-23T03:54:01;16.70;88.50
51863;DHT22;37900;52.996;6.278;2023-03-23T03:56:27;16.70;88.40
51863;DHT22;37900;52.996;6.278;2023-03-23T03:58:53;16.70;88.40
51863;DHT22;37900;52.996;6.278;2023-03-23T04:01:21;16.70;88.40
51863;DHT22;37900;52.996;6.278;2023-03-23T04:03:50;16.70;88.40
51863;DHT22;37900;52.996;6.278;2023-03-23T04:06:17;16.70;88.40
51863;DHT22;37900;52.996;6.278;2023-03-23T04:08:43;16.70;88.40
51863;DHT22;37900;52.996;6.278;2023-03-23T04:11:11;16.70;88.30
51863;DHT22;37900;52.996;6.278;2023-03-23T04:13:39;16.70;88.40
51863;DHT22;37900;52.996;6.278;2023-03-23T04:16:05;16.70;88.30
51863;DHT22;37900;52.996;6.278;2023-03-23T04:18:32;16.70;88.20
51863;DHT22;37900;52.996;6.278;2023-03-23T04:20:59;16.70;88.20
51863;DHT22;37900;52.996;6.278;2023-03-23T04:23:28;16.70;88.30
51863;DHT22;37900;52.996;6.278;2023-03-23T04:25:56;16.70;88.20
51863;DHT22;37900;52.996;6.278;2023-03-23T04:28:26;16.70;88.20
51863;DHT22;37900;52.996;6.278;2023-03-23T04:30:53;16.70;88.20
51863;DHT22;37900;52.996;6.278;2023-03-23T04:33:21;16.70;88.20
51863;DHT22;37900;52.996;6.278;2023-03-23T04:35:47;16.70;88.20
51863;DHT22;37900;52.996;6.278;2023-03-23T04:38:15;16.70;88.00
51863;DHT22;37900;52.996;6.278;2023-03-23T04:40:43;16.70;88.20
51863;DHT22;37900;52.996;6.278;2023-03-23T04:43:09;16.60;88.00
51863;DHT22;37900;52.996;6.278;2023-03-23T04:45:38;16.70;88.10
51863;DHT22;37900;52.996;6.278;2023-03-23T04:48:07;16.70;88.00
51863;DHT22;37900;52.996;6.278;2023-03-23T04:50:34;16.70;88.00
51863;DHT22;37900;52.996;6.278;2023-03-23T04:53:01;16.70;88.10
51863;DHT22;37900;52.996;6.278;2023-03-23T04:55:36;16.60;88.00
51863;DHT22;37900;52.996;6.278;2023-03-23T04:58:03;16.70;88.00
51863;DHT22;37900;52.996;6.278;2023-03-23T05:00:29;16.70;88.00
51863;DHT22;37900;52.996;6.278;2023-03-23T05:02:55;16.60;88.00
51863;DHT22;37900;52.996;6.278;2023-03-23T05:05:22;16.60;87.90
51863;DHT22;37900;52.996;6.278;2023-03-23T05:07:49;16.70;88.00
51863;DHT22;37900;52.996;6.278;2023-03-23T05:10:15;16.70;88.00
51863;DHT22;37900;52.996;6.278;2023-03-23T05:12:42;16.60;87.90
51863;DHT22;37900;52.996;6.278;2023-03-23T05:15:09;16.70;87.90
51863;DHT22;37900;52.996;6.278;2023-03-23T05:17:35;16.60;87.80
51863;DHT22;37900;52.996;6.278;2023-03-23T05:20:02;16.70;87.90
51863;DHT22;37900;52.996;6.278;2023-03-23T05:22:35;16.60;87.80
51863;DHT22;37900;52.996;6.278;2023-03-23T05:25:02;16.60;87.80
51863;DHT22;37900;52.996;6.278;2023-03-23T05:27:28;16.60;87.80
51863;DHT22;37900;52.996;6.278;2023-03-23T05:29:56;16.60;87.80
51863;DHT22;37900;52.996;6.278;2023-03-23T05:32:27;16.60;87.80
51863;DHT22;37900;52.996;6.278;2023-03-23T05:35:00;16.60;87.80
51863;DHT22;37900;52.996;6.278;2023-03-23T05:37:27;16.60;87.70
51863;DHT22;37900;52.996;6.278;2023-03-23T05:40:00;16.60;87.80
51863;DHT22;37900;52.996;6.278;2023-03-23T05:42:34;16.60;87.70
51863;DHT22;37900;52.996;6.278;2023-03-23T05:45:01;16.60;87.70
51863;DHT22;37900;52.996;6.278;2023-03-23T05:47:27;16.60;87.70
51863;DHT22;37900;52.996;6.278;2023-03-23T05:49:53;16.60;87.60
51863;DHT22;37900;52.996;6.278;2023-03-23T05:52:19;16.60;87.60
51863;DHT22;37900;52.996;6.278;2023-03-23T05:54:44;16.60;87.60
51863;DHT22;37900;52.996;6.278;2023-03-23T05:57:11;16.60;87.60
51863;DHT22;37900;52.996;6.278;2023-03-23T05:59:36;16.60;87.60
51863;DHT22;37900;52.996;6.278;2023-03-23T06:02:03;16.60;87.60
51863;DHT22;37900;52.996;6.278;2023-03-23T06:04:30;16.60;87.50
51863;DHT22;37900;52.996;6.278;2023-03-23T06:07:01;16.60;87.60
51863;DHT22;37900;52.996;6.278;2023-03-23T06:09:27;16.60;87.60
51863;DHT22;37900;52.996;6.278;2023-03-23T06:11:54;16.60;87.60
51863;DHT22;37900;52.996;6.278;2023-03-23T06:14:19;16.60;87.50
51863;DHT22;37900;52.996;6.278;2023-03-23T06:16:46;16.60;87.50
51863;DHT22;37900;52.996;6.278;2023-03-23T06:19:12;16.60;87.50
51863;DHT22;37900;52.996;6.278;2023-03-23T06:21:38;16.70;87.50
51863;DHT22;37900;52.996;6.278;2023-03-23T06:24:04;16.60;87.40
51863;DHT22;37900;52.996;6.278;2023-03-23T06:26:33;16.60;87.40
51863;DHT22;37900;52.996;6.278;2023-03-23T06:29:00;16.60;87.50
51863;DHT22;37900;52.996;6.278;2023-03-23T06:31:26;16.60;87.40
51863;DHT22;37900;52.996;6.278;2023-03-23T06:33:53;16.60;87.40
51863;DHT22;37900;52.996;6.278;2023-03-23T06:36:19;16.60;87.40
51863;DHT22;37900;52.996;6.278;2023-03-23T06:38:45;16.60;87.40
51863;DHT22;37900;52.996;6.278;2023-03-23T06:41:11;16.60;87.40
51863;DHT22;37900;52.996;6.278;2023-03-23T06:43:37;16.60;87.40
51863;DHT22;37900;52.996;6.278;2023-03-23T06:46:05;16.60;87.40
51863;DHT22;37900;52.996;6.278;2023-03-23T06:48:31;16.60;87.40
51863;DHT22;37900;52.996;6.278;2023-03-23T06:50:57;16.60;87.40
51863;DHT22;37900;52.996;6.278;2023-03-23T06:53:23;16.60;87.40
51863;DHT22;37900;52.996;6.278;2023-03-23T06:55:50;16.60;87.40
51863;DHT22;37900;52.996;6.278;2023-03-23T06:58:16;16.60;87.40
51863;DHT22;37900;52.996;6.278;2023-03-23T07:00:41;16.50;87.30
51863;DHT22;37900;52.996;6.278;2023-03-23T07:03:08;16.60;87.40
51863;DHT22;37900;52.996;6.278;2023-03-23T07:05:34;16.60;87.30
51863;DHT22;37900;52.996;6.278;2023-03-23T07:08:01;16.60;87.40
51863;DHT22;37900;52.996;6.278;2023-03-23T07:10:27;16.50;87.30
51863;DHT22;37900;52.996;6.278;2023-03-23T07:12:53;16.60;87.30
51863;DHT22;37900;52.996;6.278;2023-03-23T07:15:19;16.60;87.30
51863;DHT22;37900;52.996;6.278;2023-03-23T07:17:46;16.60;87.30
51863;DHT22;37900;52.996;6.278;2023-03-23T07:20:12;16.60;87.30
51863;DHT22;37900;52.996;6.278;2023-03-23T07:22:39;16.60;87.30
51863;DHT22;37900;52.996;6.278;2023-03-23T07:25:05;16.50;87.20
51863;DHT22;37900;52.996;6.278;2023-03-23T07:27:31;16.60;87.30
51863;DHT22;37900;52.996;6.278;2023-03-23T07:29:57;16.60;87.30
51863;DHT22;37900;52.996;6.278;2023-03-23T07:32:23;16.60;87.30
51863;DHT22;37900;52.996;6.278;2023-03-23T07:34:49;16.60;87.40
51863;DHT22;37900;52.996;6.278;2023-03-23T07:37:16;16.60;87.60
51863;DHT22;37900;52.996;6.278;2023-03-23T07:39:42;16.60;87.80
51863;DHT22;37900;52.996;6.278;2023-03-23T07:42:08;16.60;88.00
51863;DHT22;37900;52.996;6.278;2023-03-23T07:44:35;16.60;88.20
51863;DHT22;37900;52.996;6.278;2023-03-23T07:47:00;16.60;88.20
51863;DHT22;37900;52.996;6.278;2023-03-23T07:49:26;16.60;88.50
51863;DHT22;37900;52.996;6.278;2023-03-23T07:51:52;16.60;88.50
51863;DHT22;37900;52.996;6.278;2023-03-23T07:54:18;16.60;88.60
51863;DHT22;37900;52.996;6.278;2023-03-23T07:56:44;16.60;88.80
51863;DHT22;37900;52.996;6.278;2023-03-23T07:59:11;16.60;89.10
51863;DHT22;37900;52.996;6.278;2023-03-23T08:01:38;16.60;89.50
51863;DHT22;37900;52.996;6.278;2023-03-23T08:04:05;16.60;89.90
51863;DHT22;37900;52.996;6.278;2023-03-23T08:06:32;16.60;90.00
51863;DHT22;37900;52.996;6.278;2023-03-23T08:08:59;16.70;90.00
51863;DHT22;37900;52.996;6.278;2023-03-23T08:11:26;16.70;90.10
51863;DHT22;37900;52.996;6.278;2023-03-23T08:13:52;16.70;90.20
51863;DHT22;37900;52.996;6.278;2023-03-23T08:16:18;16.70;90.50
51863;DHT22;37900;52.996;6.278;2023-03-23T08:18:45;16.70;90.30
51863;DHT22;37900;52.996;6.278;2023-03-23T08:21:12;16.70;90.30
51863;DHT22;37900;52.996;6.278;2023-03-23T08:23:38;16.70;90.40
51863;DHT22;37900;52.996;6.278;2023-03-23T08:26:08;16.80;90.40
51863;DHT22;37900;52.996;6.278;2023-03-23T08:28:35;16.80;90.50
51863;DHT22;37900;52.996;6.278;2023-03-23T08:31:09;16.70;90.50
51863;DHT22;37900;52.996;6.278;2023-03-23T08:33:36;16.80;90.60
51863;DHT22;37900;52.996;6.278;2023-03-23T08:36:06;16.80;90.70
51863;DHT22;37900;52.996;6.278;2023-03-23T08:38:32;16.80;90.70
51863;DHT22;37900;52.996;6.278;2023-03-23T08:40:59;16.80;90.70
51863;DHT22;37900;52.996;6.278;2023-03-23T08:43:25;16.80;90.80
51863;DHT22;37900;52.996;6.278;2023-03-23T08:45:53;16.80;90.90
51863;DHT22;37900;52.996;6.278;2023-03-23T08:48:20;16.80;91.10
51863;DHT22;37900;52.996;6.278;2023-03-23T08:50:46;16.90;90.90
51863;DHT22;37900;52.996;6.278;2023-03-23T08:53:12;16.90;91.00
51863;DHT22;37900;52.996;6.278;2023-03-23T08:55:37;16.90;91.00
51863;DHT22;37900;52.996;6.278;2023-03-23T08:58:05;16.90;91.00
51863;DHT22;37900;52.996;6.278;2023-03-23T09:00:31;16.90;91.30
51863;DHT22;37900;52.996;6.278;2023-03-23T09:02:58;16.90;91.10
51863;DHT22;37900;52.996;6.278;2023-03-23T09:05:26;16.90;91.10
51863;DHT22;37900;52.996;6.278;2023-03-23T09:07:54;16.90;91.10
51863;DHT22;37900;52.996;6.278;2023-03-23T09:10:21;16.90;91.20
51863;DHT22;37900;52.996;6.278;2023-03-23T09:12:48;16.90;91.20
51863;DHT22;37900;52.996;6.278;2023-03-23T09:15:16;17.00;91.20
51863;DHT22;37900;52.996;6.278;2023-03-23T09:17:44;17.00;91.20
51863;DHT22;37900;52.996;6.278;2023-03-23T09:20:12;17.00;91.20
51863;DHT22;37900;52.996;6.278;2023-03-23T09:22:47;16.90;91.20
51863;DHT22;37900;52.996;6.278;2023-03-23T09:25:15;17.00;91.20
51863;DHT22;37900;52.996;6.278;2023-03-23T09:27:44;17.00;91.30
51863;DHT22;37900;52.996;6.278;2023-03-23T09:30:13;17.00;91.20
51863;DHT22;37900;52.996;6.278;2023-03-23T09:32:40;17.00;91.20
51863;DHT22;37900;52.996;6.278;2023-03-23T09:35:08;17.00;91.20
51863;DHT22;37900;52.996;6.278;2023-03-23T09:37:35;17.00;91.30
51863;DHT22;37900;52.996;6.278;2023-03-23T09:40:06;17.00;91.40
51863;DHT22;37900;52.996;6.278;2023-03-23T09:50:55;17.10;91.40
51863;DHT22;37900;52.996;6.278;2023-03-23T09:53:28;17.00;91.30
51863;DHT22;37900;52.996;6.278;2023-03-23T09:56:01;17.10;91.30
51863;DHT22;37900;52.996;6.278;2023-03-23T09:58:32;17.10;91.40
51863;DHT22;37900;52.996;6.278;2023-03-23T10:01:14;17.10;91.40
51863;DHT22;37900;52.996;6.278;2023-03-23T10:03:43;17.10;91.40
51863;DHT22;37900;52.996;6.278;2023-03-23T10:06:11;17.10;91.40
51863;DHT22;37900;52.996;6.278;2023-03-23T10:08:44;17.10;91.40
51863;DHT22;37900;52.996;6.278;2023-03-23T10:17:14;17.10;91.40
51863;DHT22;37900;52.996;6.278;2023-03-23T10:22:10;17.10;91.40
51863;DHT22;37900;52.996;6.278;2023-03-23T10:24:53;17.10;91.40
51863;DHT22;37900;52.996;6.278;2023-03-23T10:27:33;17.10;91.40
51863;DHT22;37900;52.996;6.278;2023-03-23T10:30:36;17.10;91.30
51863;DHT22;37900;52.996;6.278;2023-03-23T10:35:56;17.10;91.40
51863;DHT22;37900;52.996;6.278;2023-03-23T10:38:39;17.10;91.40
51863;DHT22;37900;52.996;6.278;2023-03-23T10:41:19;17.10;91.40
51863;DHT22;37900;52.996;6.278;2023-03-23T10:43:46;17.10;91.40
51863;DHT22;37900;52.996;6.278;2023-03-23T10:46:35;17.10;91.40
51863;DHT22;37900;52.996;6.278;2023-03-23T10:49:06;17.10;91.40
51863;DHT22;37900;52.996;6.278;2023-03-23T10:51:37;17.10;91.40
51863;DHT22;37900;52.996;6.278;2023-03-23T10:54:05;17.10;91.40
51863;DHT22;37900;52.996;6.278;2023-03-23T10:56:38;17.10;91.40
51863;DHT22;37900;52.996;6.278;2023-03-23T11:01:44;17.10;91.40
51863;DHT22;37900;52.996;6.278;2023-03-23T11:04:13;17.10;91.40
51863;DHT22;37900;52.996;6.278;2023-03-23T11:06:44;17.10;91.40
51863;DHT22;37900;52.996;6.278;2023-03-23T11:09:18;17.10;91.40
51863;DHT22;37900;52.996;6.278;2023-03-23T11:11:50;17.10;91.50
51863;DHT22;37900;52.996;6.278;2023-03-23T11:14:24;17.10;91.50
51863;DHT22;37900;52.996;6.278;2023-03-23T11:16:58;17.20;91.60
51863;DHT22;37900;52.996;6.278;2023-03-23T11:19:31;17.10;91.60
51863;DHT22;37900;52.996;6.278;2023-03-23T11:24:41;17.20;91.60
51863;DHT22;37900;52.996;6.278;2023-03-23T11:27:07;17.10;91.60
51863;DHT22;37900;52.996;6.278;2023-03-23T11:29:35;17.10;91.60
51863;DHT22;37900;52.996;6.278;2023-03-23T11:32:10;17.20;91.70
51863;DHT22;37900;52.996;6.278;2023-03-23T11:34:53;17.20;91.70
51863;DHT22;37900;52.996;6.278;2023-03-23T11:37:41;17.20;91.70
51863;DHT22;37900;52.996;6.278;2023-03-23T11:42:42;17.20;91.70
51863;DHT22;37900;52.996;6.278;2023-03-23T11:45:20;17.20;91.70
51863;DHT22;37900;52.996;6.278;2023-03-23T11:50:34;17.20;91.70
51863;DHT22;37900;52.996;6.278;2023-03-23T11:55:53;17.20;91.70
51863;DHT22;37900;52.996;6.278;2023-03-23T11:58:21;17.20;91.70
51863;DHT22;37900;52.996;6.278;2023-03-23T12:00:49;17.20;91.70
51863;DHT22;37900;52.996;6.278;2023-03-23T12:06:02;17.20;91.70
51863;DHT22;37900;52.996;6.278;2023-03-23T12:11:45;17.20;91.70
51863;DHT22;37900;52.996;6.278;2023-03-23T12:22:40;17.20;91.80
51863;DHT22;37900;52.996;6.278;2023-03-23T12:27:59;17.20;91.70
51863;DHT22;37900;52.996;6.278;2023-03-23T12:31:01;17.20;91.80
51863;DHT22;37900;52.996;6.278;2023-03-23T12:33:50;17.20;91.80
51863;DHT22;37900;52.996;6.278;2023-03-23T12:44:45;17.20;91.80
51863;DHT22;37900;52.996;6.278;2023-03-23T12:49:55;17.30;92.00
51863;DHT22;37900;52.996;6.278;2023-03-23T12:52:33;17.20;92.00
51863;DHT22;37900;52.996;6.278;2023-03-23T12:55:19;17.30;92.10
51863;DHT22;37900;52.996;6.278;2023-03-23T12:58:08;17.30;92.10
51863;DHT22;37900;52.996;6.278;2023-03-23T13:00:48;17.30;92.10
51863;DHT22;37900;52.996;6.278;2023-03-23T13:03:28;17.20;92.30
51863;DHT22;37900;52.996;6.278;2023-03-23T13:12:03;17.30;92.40
51863;DHT22;37900;52.996;6.278;2023-03-23T13:14:37;17.30;92.50
51863;DHT22;37900;52.996;6.278;2023-03-23T13:17:26;17.30;92.70
51863;DHT22;37900;52.996;6.278;2023-03-23T13:20:04;17.30;92.80
51863;DHT22;37900;52.996;6.278;2023-03-23T13:23:07;17.30;93.00
51863;DHT22;37900;52.996;6.278;2023-03-23T13:26:01;17.30;93.20
51863;DHT22;37900;52.996;6.278;2023-03-23T13:28:44;17.30;93.30
51863;DHT22;37900;52.996;6.278;2023-03-23T13:31:16;17.30;93.30
51863;DHT22;37900;52.996;6.278;2023-03-23T13:33:49;17.30;93.40
51863;DHT22;37900;52.996;6.278;2023-03-23T13:36:19;17.30;93.40
51863;DHT22;37900;52.996;6.278;2023-03-23T13:38:48;17.30;93.40
51863;DHT22;37900;52.996;6.278;2023-03-23T13:41:16;17.30;93.50
51863;DHT22;37900;52.996;6.278;2023-03-23T13:43:43;17.30;93.50
51863;DHT22;37900;52.996;6.278;2023-03-23T13:46:24;17.40;93.50
51863;DHT22;37900;52.996;6.278;2023-03-23T13:49:03;17.40;93.60
51863;DHT22;37900;52.996;6.278;2023-03-23T13:51:47;17.40;93.70
51863;DHT22;37900;52.996;6.278;2023-03-23T13:54:23;17.40;93.70
51863;DHT22;37900;52.996;6.278;2023-03-23T13:56:59;17.40;93.70
51863;DHT22;37900;52.996;6.278;2023-03-23T14:01:56;17.40;93.80
51863;DHT22;37900;52.996;6.278;2023-03-23T14:04:30;17.40;93.80
51863;DHT22;37900;52.996;6.278;2023-03-23T14:06:57;17.40;93.80
51863;DHT22;37900;52.996;6.278;2023-03-23T14:09:43;17.40;93.80
51863;DHT22;37900;52.996;6.278;2023-03-23T14:12:20;17.40;93.70
51863;DHT22;37900;52.996;6.278;2023-03-23T14:14:54;17.40;93.70
51863;DHT22;37900;52.996;6.278;2023-03-23T14:17:26;17.40;93.50
51863;DHT22;37900;52.996;6.278;2023-03-23T14:19:53;17.40;93.30
51863;DHT22;37900;52.996;6.278;2023-03-23T14:22:24;17.40;93.10
51863;DHT22;37900;52.996;6.278;2023-03-23T14:24:51;17.40;93.00
51863;DHT22;37900;52.996;6.278;2023-03-23T14:27:20;17.40;92.90
51863;DHT22;37900;52.996;6.278;2023-03-23T14:29:58;17.30;92.70
51863;DHT22;37900;52.996;6.278;2023-03-23T14:32:24;17.30;92.60
51863;DHT22;37900;52.996;6.278;2023-03-23T14:34:52;17.30;92.50
51863;DHT22;37900;52.996;6.278;2023-03-23T14:37:18;17.30;92.50
51863;DHT22;37900;52.996;6.278;2023-03-23T14:39:48;17.30;92.40
51863;DHT22;37900;52.996;6.278;2023-03-23T14:42:16;17.30;92.40
51863;DHT22;37900;52.996;6.278;2023-03-23T14:44:45;17.30;92.40
51863;DHT22;37900;52.996;6.278;2023-03-23T14:47:30;17.30;92.30
51863;DHT22;37900;52.996;6.278;2023-03-23T14:49:59;17.40;92.30
51863;DHT22;37900;52.996;6.278;2023-03-23T14:52:33;17.30;92.20
51863;DHT22;37900;52.996;6.278;2023-03-23T14:55:20;17.40;92.20
51863;DHT22;37900;52.996;6.278;2023-03-23T14:57:48;17.40;92.10
51863;DHT22;37900;52.996;6.278;2023-03-23T15:00:25;17.30;92.10
51863;DHT22;37900;52.996;6.278;2023-03-23T15:02:56;17.30;92.00
51863;DHT22;37900;52.996;6.278;2023-03-23T15:05:29;17.40;92.00
51863;DHT22;37900;52.996;6.278;2023-03-23T15:08:00;17.30;92.00
51863;DHT22;37900;52.996;6.278;2023-03-23T15:10:28;17.30;91.90
51863;DHT22;37900;52.996;6.278;2023-03-23T15:12:53;17.40;91.90
51863;DHT22;37900;52.996;6.278;2023-03-23T15:15:30;17.40;91.90
51863;DHT22;37900;52.996;6.278;2023-03-23T15:17:57;17.40;91.80
51863;DHT22;37900;52.996;6.278;2023-03-23T15:20:25;17.40;91.70
51863;DHT22;37900;52.996;6.278;2023-03-23T15:22:51;17.30;91.60
51863;DHT22;37900;52.996;6.278;2023-03-23T15:27:55;17.30;91.60
51863;DHT22;37900;52.996;6.278;2023-03-23T15:32:49;17.30;91.50
51863;DHT22;37900;52.996;6.278;2023-03-23T15:35:18;17.40;91.50
51863;DHT22;37900;52.996;6.278;2023-03-23T15:38:15;17.40;91.50
51863;DHT22;37900;52.996;6.278;2023-03-23T15:40:35;17.40;91.50
51863;DHT22;37900;52.996;6.278;2023-03-23T15:43:20;17.40;91.60
51863;DHT22;37900;52.996;6.278;2023-03-23T15:48:19;17.40;91.50
51863;DHT22;37900;52.996;6.278;2023-03-23T15:50:47;17.40;91.50
51863;DHT22;37900;52.996;6.278;2023-03-23T15:53:28;17.40;91.50
51863;DHT22;37900;52.996;6.278;2023-03-23T15:55:55;17.40;91.50
51863;DHT22;37900;52.996;6.278;2023-03-23T15:58:21;17.40;91.50
51863;DHT22;37900;52.996;6.278;2023-03-23T16:00:48;17.40;91.40
51863;DHT22;37900;52.996;6.278;2023-03-23T16:03:29;17.40;91.40
51863;DHT22;37900;52.996;6.278;2023-03-23T16:05:58;17.40;91.40
51863;DHT22;37900;52.996;6.278;2023-03-23T16:08:28;17.40;91.30
51863;DHT22;37900;52.996;6.278;2023-03-23T16:10:53;17.40;91.30
51863;DHT22;37900;52.996;6.278;2023-03-23T16:13:19;17.40;91.30
51863;DHT22;37900;52.996;6.278;2023-03-23T16:15:46;17.40;91.30
51863;DHT22;37900;52.996;6.278;2023-03-23T16:18:20;17.40;91.20
51863;DHT22;37900;52.996;6.278;2023-03-23T16:20:47;17.30;91.20
51863;DHT22;37900;52.996;6.278;2023-03-23T16:23:13;17.40;91.20
51863;DHT22;37900;52.996;6.278;2023-03-23T16:25:38;17.40;91.20
51863;DHT22;37900;52.996;6.278;2023-03-23T16:28:05;17.30;91.10
51863;DHT22;37900;52.996;6.278;2023-03-23T16:30:33;17.40;91.10
51863;DHT22;37900;52.996;6.278;2023-03-23T16:33:00;17.30;91.10
51863;DHT22;37900;52.996;6.278;2023-03-23T16:35:26;17.30;91.10
51863;DHT22;37900;52.996;6.278;2023-03-23T16:37:54;17.30;91.10
51863;DHT22;37900;52.996;6.278;2023-03-23T16:40:21;17.30;91.30
51863;DHT22;37900;52.996;6.278;2023-03-23T16:42:47;17.30;91.00
51863;DHT22;37900;52.996;6.278;2023-03-23T16:45:14;17.30;91.00
51863;DHT22;37900;52.996;6.278;2023-03-23T16:47:40;17.30;91.00
51863;DHT22;37900;52.996;6.278;2023-03-23T16:50:12;17.30;91.00
51863;DHT22;37900;52.996;6.278;2023-03-23T16:52:39;17.30;91.00
51863;DHT22;37900;52.996;6.278;2023-03-23T16:55:05;17.30;90.90
51863;DHT22;37900;52.996;6.278;2023-03-23T16:57:32;17.30;90.90
51863;DHT22;37900;52.996;6.278;2023-03-23T17:00:14;17.30;90.90
51863;DHT22;37900;52.996;6.278;2023-03-23T17:02:41;17.30;90.90
51863;DHT22;37900;52.996;6.278;2023-03-23T17:05:09;17.30;90.90
51863;DHT22;37900;52.996;6.278;2023-03-23T17:07:37;17.30;90.90
51863;DHT22;37900;52.996;6.278;2023-03-23T17:10:03;17.30;90.90
51863;DHT22;37900;52.996;6.278;2023-03-23T17:12:30;17.30;91.00
51863;DHT22;37900;52.996;6.278;2023-03-23T17:14:56;17.30;91.10
51863;DHT22;37900;52.996;6.278;2023-03-23T17:17:22;17.30;91.10
51863;DHT22;37900;52.996;6.278;2023-03-23T17:19:49;17.30;91.20
51863;DHT22;37900;52.996;6.278;2023-03-23T17:22:15;17.30;91.20
51863;DHT22;37900;52.996;6.278;2023-03-23T17:24:41;17.30;91.40
51863;DHT22;37900;52.996;6.278;2023-03-23T17:27:06;17.30;91.40